Time;durP1;ratioP1;P1;durP2;ratioP2;P2;SDS_P1;SDS_P2;PMS_P1;PMS_P2;Temp;Humidity;BMP_temperature;BMP_pressure;BME280_temperature;BME280_humidity;BME280_pressure;Samples;Min_cycle;Max_cycle;Signal;HPM_P1;HPM_P2
2021/04/27 00:00:10;;;;;;;6.65;1.67;;;9.90;49.90;;;;;;5090027;28;20020;-68
2021/04/27 00:02:36;;;;;;;3.22;1.30;;;9.90;50.00;;;;;;5088119;28;20028;-68
2021/04/27 00:05:05;;;;;;;3.80;1.67;;;9.90;49.90;;;;;;5090707;28;20508;-67
2021/04/27 00:07:31;;;;;;;5.45;1.85;;;9.90;49.60;;;;;;5090282;28;20028;-68
2021/04/27 00:09:56;;;;;;;2.30;1.50;;;9.80;50.00;;;;;;5090192;28;20080;-68
2021/04/27 00:12:22;;;;;;;3.72;1.60;;;9.80;49.90;;;;;;5090124;28;20482;-68
2021/04/27 00:14:48;;;;;;;2.63;1.55;;;9.80;50.30;;;;;;5089184;28;20477;-67
2021/04/27 00:17:13;;;;;;;3.15;1.38;;;9.70;49.70;;;;;;5076724;28;20475;-67
2021/04/27 00:19:39;;;;;;;4.10;1.38;;;9.70;50.10;;;;;;5069383;28;20481;-68
2021/04/27 00:22:04;;;;;;;2.28;1.45;;;9.70;49.80;;;;;;5070132;28;20488;-68
2021/04/27 00:24:31;;;;;;;4.45;1.55;;;9.80;50.30;;;;;;5051838;28;20028;-68
2021/04/27 00:27:00;;;;;;;5.80;1.50;;;9.80;49.50;;;;;;5069225;28;20099;-68
2021/04/27 00:29:27;;;;;;;2.22;1.50;;;9.60;50.00;;;;;;5051594;28;20036;-68
2021/04/27 00:31:53;;;;;;;2.28;1.23;;;9.60;50.10;;;;;;5051266;28;20078;-68
2021/04/27 00:34:19;;;;;;;5.03;1.50;;;9.60;50.50;;;;;;5069780;28;20025;-68
2021/04/27 00:36:45;;;;;;;3.40;1.48;;;9.60;50.20;;;;;;5051187;28;20123;-68
2021/04/27 00:39:11;;;;;;;3.95;1.42;;;9.50;50.20;;;;;;5072810;28;20029;-67
2021/04/27 00:41:36;;;;;;;4.00;1.42;;;9.40;50.40;;;;;;5072571;28;20393;-68
2021/04/27 00:44:03;;;;;;;3.47;1.23;;;9.40;50.30;;;;;;5073070;28;20078;-68
2021/04/27 00:46:28;;;;;;;2.35;1.40;;;9.40;50.80;;;;;;5073034;28;20068;-68
2021/04/27 00:48:54;;;;;;;3.35;1.48;;;9.50;50.10;;;;;;5072738;28;20067;-68
2021/04/27 00:51:19;;;;;;;6.38;1.70;;;9.50;50.40;;;;;;5073329;28;20040;-70
2021/04/27 00:53:45;;;;;;;3.95;1.42;;;9.50;50.30;;;;;;5072688;28;20052;-68
2021/04/27 00:56:11;;;;;;;3.65;1.45;;;9.40;50.30;;;;;;5073087;28;20032;-67
2021/04/27 00:58:37;;;;;;;5.55;1.80;;;9.30;50.40;;;;;;5054540;28;20040;-68
2021/04/27 01:01:03;;;;;;;3.65;1.20;;;9.40;50.30;;;;;;5073290;28;20056;-68
2021/04/27 01:03:29;;;;;;;2.22;1.48;;;9.40;50.90;;;;;;5054848;28;20039;-67
2021/04/27 01:05:55;;;;;;;2.95;1.42;;;9.30;50.80;;;;;;5072421;28;20028;-67
2021/04/27 01:08:50;;;;;;;3.08;1.70;;;9.40;51.80;;;;;;5055223;28;20050;-68
2021/04/27 01:11:34;;;;;;;2.50;1.30;;;9.30;50.90;;;;;;5043380;28;20461;-67
2021/04/27 01:14:10;;;;;;;2.83;1.80;;;9.30;50.70;;;;;;5072366;28;20111;-68
2021/04/27 01:16:48;;;;;;;3.65;1.48;;;9.30;51.30;;;;;;5072159;28;20106;-76
2021/04/27 01:19:18;;;;;;;3.10;1.77;;;9.20;51.20;;;;;;5054726;28;20029;-68
2021/04/27 01:21:44;;;;;;;4.38;1.40;;;9.20;51.40;;;;;;5054121;28;20396;-67
2021/04/27 01:24:16;;;;;;;4.88;1.40;;;9.20;51.30;;;;;;5072619;28;20032;-67
2021/04/27 01:26:51;;;;;;;4.30;1.40;;;9.10;51.80;;;;;;5054261;28;20493;-67
2021/04/27 01:29:22;;;;;;;2.47;1.58;;;9.00;51.70;;;;;;5072342;28;20477;-67
2021/04/27 01:31:50;;;;;;;7.50;2.42;;;9.00;51.60;;;;;;5072112;28;20024;-67
2021/04/27 01:34:41;;;;;;;3.30;1.60;;;9.10;51.60;;;;;;5054113;28;20123;-68
2021/04/27 01:37:10;;;;;;;2.83;1.13;;;9.10;51.10;;;;;;5071502;28;20028;-68
2021/04/27 01:39:37;;;;;;;5.35;1.67;;;9.10;51.20;;;;;;5054113;28;20509;-67
2021/04/27 01:42:06;;;;;;;2.45;1.25;;;8.90;51.70;;;;;;5054008;28;20052;-67
2021/04/27 01:44:35;;;;;;;2.55;1.20;;;8.90;51.70;;;;;;5053880;28;20222;-68
2021/04/27 01:47:03;;;;;;;1.77;1.35;;;8.80;51.90;;;;;;5053442;28;20032;-67
2021/04/27 01:49:29;;;;;;;2.85;1.50;;;8.90;51.90;;;;;;5053184;28;20024;-68
2021/04/27 01:51:55;;;;;;;1.70;1.40;;;8.90;51.80;;;;;;5053400;28;20052;-67
2021/04/27 01:54:22;;;;;;;3.95;1.60;;;8.80;52.00;;;;;;5053603;28;20062;-67
2021/04/27 01:56:48;;;;;;;5.35;1.88;;;8.80;52.10;;;;;;5071615;28;20029;-68
2021/04/27 01:59:14;;;;;;;5.22;1.42;;;8.80;52.30;;;;;;5071993;28;20078;-69
2021/04/27 02:01:39;;;;;;;2.72;1.50;;;8.70;52.00;;;;;;5070924;28;20062;-69
2021/04/27 02:04:05;;;;;;;3.10;1.60;;;8.80;52.40;;;;;;5071605;28;20366;-68
2021/04/27 02:06:31;;;;;;;1.95;1.60;;;8.70;52.40;;;;;;5053771;28;20034;-68
2021/04/27 02:09:07;;;;;;;1.33;1.20;;;8.60;52.40;;;;;;5071155;28;20071;-67
2021/04/27 02:11:36;;;;;;;2.90;1.77;;;8.60;52.60;;;;;;5071822;28;20040;-68
2021/04/27 02:14:03;;;;;;;8.93;1.50;;;8.70;52.60;;;;;;5070908;28;20029;-69
2021/04/27 02:16:37;;;;;;;6.03;1.70;;;8.60;52.70;;;;;;5063992;28;20059;-68
2021/04/27 02:19:04;;;;;;;3.15;1.02;;;8.70;52.50;;;;;;5091322;28;20418;-68
2021/04/27 02:21:33;;;;;;;2.45;1.52;;;8.70;52.60;;;;;;5092141;28;20039;-68
2021/04/27 02:24:00;;;;;;;2.63;1.30;;;8.70;52.70;;;;;;5089676;28;20397;-68
2021/04/27 02:26:26;;;;;;;2.00;1.40;;;8.70;52.70;;;;;;5092123;28;20107;-68
2021/04/27 02:28:53;;;;;;;5.15;1.42;;;8.60;52.80;;;;;;5090989;28;20518;-67
2021/04/27 02:31:19;;;;;;;3.47;1.83;;;8.50;52.90;;;;;;5091677;28;20499;-67
2021/04/27 02:33:45;;;;;;;3.60;1.48;;;8.60;52.80;;;;;;5090942;28;20059;-67
2021/04/27 02:36:11;;;;;;;2.40;1.92;;;8.20;53.40;;;;;;5090018;28;20036;-67
2021/04/27 02:38:36;;;;;;;2.55;0.98;;;8.30;53.70;;;;;;5089998;28;20112;-68
2021/04/27 02:41:03;;;;;;;4.50;1.48;;;8.20;53.50;;;;;;5090338;28;20119;-67
2021/04/27 02:43:29;;;;;;;3.95;1.02;;;8.30;53.60;;;;;;5091312;28;20036;-67
2021/04/27 02:45:54;;;;;;;4.82;2.42;;;8.40;53.70;;;;;;5089426;28;20035;-67
2021/04/27 02:48:22;;;;;;;4.00;1.40;;;8.30;53.70;;;;;;5091295;28;20031;-67
2021/04/27 02:50:52;;;;;;;1.15;1.02;;;8.30;53.50;;;;;;5090765;28;20028;-69
2021/04/27 02:53:19;;;;;;;4.97;1.70;;;8.30;53.60;;;;;;5089908;28;20202;-68
2021/04/27 02:55:45;;;;;;;2.25;1.55;;;8.30;53.60;;;;;;5090637;28;20034;-68
2021/04/27 02:58:12;;;;;;;7.25;1.50;;;8.30;53.30;;;;;;5091042;28;20453;-68
2021/04/27 03:00:39;;;;;;;4.25;1.38;;;8.30;53.40;;;;;;5089557;28;20024;-68
2021/04/27 03:03:05;;;;;;;5.13;1.42;;;8.30;53.70;;;;;;5088911;28;20042;-68
2021/04/27 03:05:30;;;;;;;2.35;1.30;;;8.30;53.40;;;;;;5090528;28;20501;-68
2021/04/27 03:07:56;;;;;;;4.93;1.42;;;8.20;53.60;;;;;;5088818;28;20028;-67
2021/04/27 03:10:25;;;;;;;2.03;1.40;;;8.30;53.70;;;;;;5091147;28;20021;-71
2021/04/27 03:12:52;;;;;;;4.85;1.40;;;8.10;53.80;;;;;;5090273;28;20119;-67
2021/04/27 03:15:18;;;;;;;2.40;1.60;;;8.10;54.00;;;;;;5090395;28;20028;-68
2021/04/27 03:17:44;;;;;;;2.35;1.42;;;8.10;54.00;;;;;;5072802;28;20477;-68
2021/04/27 03:20:12;;;;;;;5.88;1.65;;;8.10;54.50;;;;;;5052531;28;20063;-68
2021/04/27 03:22:38;;;;;;;4.13;1.90;;;8.00;54.70;;;;;;5070372;28;20425;-67
2021/04/27 03:25:05;;;;;;;2.17;1.38;;;8.00;54.70;;;;;;5052103;28;20037;-68
2021/04/27 03:27:31;;;;;;;3.08;1.40;;;8.00;54.80;;;;;;5070541;28;20107;-67
2021/04/27 03:29:57;;;;;;;1.27;1.17;;;7.90;54.70;;;;;;5069830;28;20028;-67
2021/04/27 03:32:22;;;;;;;8.13;2.42;;;8.00;54.60;;;;;;5070379;28;20039;-69
2021/04/27 03:34:48;;;;;;;3.67;1.45;;;7.90;54.80;;;;;;5069754;28;20035;-69
2021/04/27 03:37:14;;;;;;;2.75;1.48;;;7.80;55.10;;;;;;5070198;28;20464;-67
2021/04/27 03:39:40;;;;;;;5.57;1.70;;;7.80;55.30;;;;;;5051949;28;20120;-68
2021/04/27 03:42:06;;;;;;;2.55;2.13;;;7.80;55.40;;;;;;5069661;28;20032;-68
2021/04/27 03:44:32;;;;;;;2.75;1.77;;;7.80;55.40;;;;;;5051773;28;20094;-69
2021/04/27 03:46:58;;;;;;;10.15;2.67;;;7.80;55.60;;;;;;5051365;28;20033;-68
2021/04/27 03:49:24;;;;;;;6.68;1.70;;;7.70;56.00;;;;;;5051892;28;20115;-67
2021/04/27 03:51:50;;;;;;;2.85;1.85;;;7.70;55.90;;;;;;5051445;28;20059;-67
2021/04/27 03:54:16;;;;;;;2.90;1.77;;;7.80;55.80;;;;;;5052112;28;20063;-66
2021/04/27 03:56:42;;;;;;;4.13;2.03;;;7.70;55.90;;;;;;5069832;28;20043;-68
2021/04/27 03:59:08;;;;;;;4.07;1.70;;;7.60;56.00;;;;;;5069255;28;20474;-68
2021/04/27 04:01:34;;;;;;;5.45;2.10;;;7.70;56.10;;;;;;5069831;28;20036;-69
2021/04/27 04:04:00;;;;;;;1.85;1.55;;;7.70;56.00;;;;;;5069188;28;20028;-69
2021/04/27 04:06:26;;;;;;;5.80;1.65;;;7.70;55.80;;;;;;5070265;28;20070;-69
2021/04/27 04:08:52;;;;;;;2.03;1.75;;;7.60;56.10;;;;;;5051443;28;20029;-68
2021/04/27 04:11:17;;;;;;;3.25;1.70;;;7.60;56.30;;;;;;5069538;28;20316;-67
2021/04/27 04:13:43;;;;;;;3.22;2.20;;;7.60;56.50;;;;;;5053978;28;20115;-69
2021/04/27 04:16:09;;;;;;;3.60;1.70;;;7.60;56.70;;;;;;5072892;28;20053;-68
2021/04/27 04:18:34;;;;;;;5.88;2.78;;;7.60;56.50;;;;;;5055744;28;20028;-69
2021/04/27 04:21:00;;;;;;;3.63;2.10;;;7.50;56.50;;;;;;5055043;28;20138;-68
2021/04/27 04:23:27;;;;;;;4.10;1.80;;;7.60;56.70;;;;;;5073672;28;20082;-68
2021/04/27 04:25:53;;;;;;;5.40;2.00;;;7.60;56.70;;;;;;5055102;28;20120;-68
2021/04/27 04:28:18;;;;;;;4.28;1.83;;;7.50;57.10;;;;;;5073453;28;20103;-69
2021/04/27 04:30:44;;;;;;;8.52;1.92;;;7.60;57.10;;;;;;5055387;28;20061;-69
2021/04/27 04:33:10;;;;;;;4.50;1.80;;;7.70;56.70;;;;;;5073006;28;20115;-69
2021/04/27 04:35:37;;;;;;;5.70;2.00;;;7.60;56.90;;;;;;5055289;28;20481;-68
2021/04/27 04:38:03;;;;;;;5.38;1.88;;;7.70;56.80;;;;;;5073167;28;20463;-68
2021/04/27 04:40:28;;;;;;;5.82;2.33;;;7.70;56.70;;;;;;5073918;28;20112;-69
2021/04/27 04:42:54;;;;;;;4.25;2.03;;;8.10;56.10;;;;;;5055144;28;20040;-68
2021/04/27 04:45:20;;;;;;;8.38;2.40;;;8.40;55.20;;;;;;5072965;28;20072;-69
2021/04/27 04:47:46;;;;;;;10.48;2.53;;;8.40;54.60;;;;;;5055293;28;20066;-69
2021/04/27 04:50:14;;;;;;;6.65;2.00;;;8.30;54.80;;;;;;5054635;28;20434;-68
2021/04/27 04:52:41;;;;;;;5.75;2.15;;;8.30;55.10;;;;;;5073298;28;20028;-68
2021/04/27 04:55:08;;;;;;;5.03;2.15;;;8.10;55.50;;;;;;5054504;28;20036;-68
2021/04/27 04:57:35;;;;;;;3.42;2.10;;;7.90;56.10;;;;;;5054887;28;20086;-68
2021/04/27 05:00:02;;;;;;;2.72;1.73;;;7.90;56.30;;;;;;5054664;28;20198;-68
2021/04/27 05:02:28;;;;;;;2.28;1.67;;;7.80;56.40;;;;;;5055286;28;20040;-67
2021/04/27 05:04:54;;;;;;;10.15;2.13;;;7.80;56.70;;;;;;5054410;28;20025;-70
2021/04/27 05:07:22;;;;;;;7.05;3.22;;;7.80;56.50;;;;;;5072838;28;20036;-68
2021/04/27 05:09:48;;;;;;;7.63;2.08;;;7.90;56.50;;;;;;5054837;28;20384;-69
2021/04/27 05:12:14;;;;;;;6.90;2.17;;;7.80;56.20;;;;;;5055099;28;20412;-67
2021/04/27 05:14:42;;;;;;;6.03;1.95;;;7.90;56.30;;;;;;5054495;28;20059;-68
2021/04/27 05:17:09;;;;;;;10.98;1.98;;;7.90;55.90;;;;;;5072056;28;20087;-68
2021/04/27 05:19:36;;;;;;;8.98;2.30;;;8.00;56.20;;;;;;5072687;28;20024;-67
2021/04/27 05:22:03;;;;;;;5.18;1.92;;;8.10;56.20;;;;;;5072124;28;20073;-69
2021/04/27 05:24:30;;;;;;;5.15;2.15;;;8.10;55.70;;;;;;5053423;28;20036;-69
2021/04/27 05:26:56;;;;;;;7.35;1.98;;;8.30;55.50;;;;;;5048231;28;20032;-69
2021/04/27 05:29:22;;;;;;;9.18;2.10;;;8.10;55.90;;;;;;5053166;28;20115;-66
2021/04/27 05:31:49;;;;;;;7.88;1.77;;;8.20;56.20;;;;;;5052037;28;20518;-60
2021/04/27 05:34:16;;;;;;;4.78;2.40;;;8.90;67.80;;;;;;5049657;28;20052;-60
2021/04/27 05:36:43;;;;;;;6.78;2.20;;;9.20;58.90;;;;;;5051304;28;20040;-59
2021/04/27 05:39:08;;;;;;;7.43;2.05;;;9.40;55.60;;;;;;5050810;28;20036;-74
2021/04/27 05:41:34;;;;;;;4.65;2.33;;;9.30;54.10;;;;;;5050616;28;20032;-73
2021/04/27 05:44:00;;;;;;;9.77;3.08;;;9.10;53.80;;;;;;5050075;28;20465;-70
2021/04/27 05:46:25;;;;;;;6.05;2.00;;;9.10;54.20;;;;;;5032076;28;20567;-70
2021/04/27 05:48:51;;;;;;;9.52;2.42;;;9.10;54.40;;;;;;5051747;28;20025;-71
2021/04/27 05:51:17;;;;;;;6.10;2.45;;;9.10;54.40;;;;;;5033182;28;20024;-69
2021/04/27 05:53:42;;;;;;;7.93;2.33;;;9.30;53.60;;;;;;5050953;28;20068;-70
2021/04/27 05:56:08;;;;;;;5.22;2.15;;;9.30;53.70;;;;;;5052559;28;20523;-70
2021/04/27 05:58:34;;;;;;;5.80;2.08;;;9.40;53.60;;;;;;5032618;28;20029;-69
2021/04/27 06:00:59;;;;;;;5.82;1.85;;;9.50;53.40;;;;;;5050197;28;20029;-71
2021/04/27 06:03:25;;;;;;;5.35;1.95;;;9.40;53.30;;;;;;5050476;28;20501;-69
2021/04/27 06:05:51;;;;;;;6.40;2.08;;;9.50;53.10;;;;;;5037081;28;20667;-69
2021/04/27 07:29:48;;;;;;;6.30;1.55;;;12.50;47.00;;;;;;5309922;22;20056;-64
2021/04/27 07:43:59;;;;;;;3.63;1.75;;;13.70;45.50;;;;;;4999863;23;20062;-67
2021/04/27 07:46:25;;;;;;;2.50;1.60;;;14.00;45.20;;;;;;4972104;28;20035;-68
2021/04/27 07:48:51;;;;;;;3.35;1.80;;;14.20;45.20;;;;;;4952997;28;20113;-68
2021/04/27 07:51:17;;;;;;;5.45;2.22;;;14.40;44.60;;;;;;4953850;28;20118;-67
2021/04/27 07:53:43;;;;;;;4.53;1.45;;;14.80;44.80;;;;;;4971660;28;20070;-67
2021/04/27 07:56:08;;;;;;;4.95;1.92;;;14.90;44.40;;;;;;4953166;28;20042;-68
2021/04/27 07:58:34;;;;;;;3.90;1.67;;;14.40;44.10;;;;;;4971197;28;20406;-66
2021/04/27 08:01:00;;;;;;;2.35;1.35;;;14.80;44.60;;;;;;4953344;28;20030;-67
2021/04/27 08:03:26;;;;;;;3.60;1.83;;;14.50;46.30;;;;;;4970991;28;20066;-66
2021/04/27 08:05:52;;;;;;;5.90;1.75;;;15.00;45.40;;;;;;4951353;28;20035;-67
2021/04/27 08:08:18;;;;;;;5.40;1.60;;;15.20;44.20;;;;;;4971731;28;20105;-66
2021/04/27 08:10:44;;;;;;;5.90;1.95;;;15.00;42.00;;;;;;4967356;28;20448;-67
2021/04/27 08:13:10;;;;;;;6.43;1.77;;;15.10;43.40;;;;;;4951640;28;20109;-66
2021/04/27 08:15:36;;;;;;;4.05;1.88;;;15.80;42.50;;;;;;4952081;28;20027;-66
2021/04/27 08:18:03;;;;;;;6.00;1.58;;;15.60;41.80;;;;;;4968957;28;20146;-66
2021/04/27 08:20:30;;;;;;;4.13;1.63;;;16.00;41.00;;;;;;4969582;28;20035;-66
2021/04/27 08:22:56;;;;;;;5.95;1.90;;;16.40;45.90;;;;;;4951403;28;20034;-70
2021/04/27 08:25:23;;;;;;;10.38;1.95;;;17.10;50.50;;;;;;4952050;28;20157;-66
2021/04/27 08:27:49;;;;;;;7.32;2.03;;;17.60;49.10;;;;;;4951948;28;20477;-66
2021/04/27 08:30:17;;;;;;;2.97;1.77;;;18.10;46.50;;;;;;4969267;28;20034;-70
2021/04/27 08:32:43;;;;;;;8.32;2.10;;;17.70;47.30;;;;;;4951780;28;20037;-71
2021/04/27 08:35:09;;;;;;;16.20;3.15;;;18.10;47.40;;;;;;4951535;28;20031;-67
2021/04/27 08:37:36;;;;;;;2.45;1.50;;;18.80;49.20;;;;;;4951828;28;20062;-69
2021/04/27 08:40:05;;;;;;;3.90;2.13;;;17.80;39.50;;;;;;4950602;28;20027;-66
2021/04/27 08:42:33;;;;;;;3.13;1.75;;;17.40;39.50;;;;;;4969751;28;20205;-71
2021/04/27 08:45:00;;;;;;;8.13;2.15;;;17.20;40.80;;;;;;4951544;28;20046;-67
2021/04/27 08:47:27;;;;;;;3.75;2.42;;;17.30;39.70;;;;;;4969550;28;20038;-69
2021/04/27 08:49:53;;;;;;;3.08;1.70;;;17.40;40.50;;;;;;4970029;28;20372;-67
2021/04/27 08:52:19;;;;;;;4.70;1.85;;;17.10;39.90;;;;;;4950130;28;20041;-67
2021/04/27 08:54:45;;;;;;;6.10;2.30;;;17.20;39.30;;;;;;4952223;28;20101;-68
2021/04/27 08:57:12;;;;;;;3.45;1.88;;;17.40;40.20;;;;;;4968425;28;20031;-69
2021/04/27 08:59:38;;;;;;;5.35;1.92;;;17.90;39.90;;;;;;4944705;28;20440;-53
2021/04/27 09:02:04;;;;;;;5.03;2.00;;;18.20;43.80;;;;;;4970038;28;20123;-48
2021/04/27 09:04:38;;;;;;;8.48;2.08;;;18.50;45.20;;;;;;4955136;28;20030;-47
2021/04/27 09:07:11;;;;;;;2.17;1.70;;;18.50;48.30;;;;;;4971549;28;20397;-51
2021/04/27 09:09:39;;;;;;;3.75;1.95;;;18.80;44.10;;;;;;4972169;28;20027;-47
2021/04/27 09:12:06;;;;;;;4.00;2.17;;;19.40;44.40;;;;;;4956397;28;20090;-66
2021/04/27 09:14:35;;;;;;;5.80;1.83;;;19.30;38.60;;;;;;4974242;28;20027;-69
2021/04/27 09:17:04;;;;;;;4.50;2.05;;;19.20;38.10;;;;;;4956151;28;20039;-68
2021/04/27 09:19:45;;;;;;;5.25;2.05;;;19.40;38.30;;;;;;4971355;28;20022;-67
2021/04/27 09:22:25;;;;;;;8.00;2.25;;;19.50;38.70;;;;;;4955359;28;20031;-67
2021/04/27 09:24:53;;;;;;;4.00;1.75;;;20.00;39.10;;;;;;4952893;28;20122;-69
2021/04/27 09:27:27;;;;;;;6.38;1.92;;;20.40;38.10;;;;;;4957666;28;20053;-69
2021/04/27 09:29:54;;;;;;;21.10;2.90;;;19.80;38.60;;;;;;4970890;28;20319;-70
2021/04/27 09:32:38;;;;;;;4.18;2.00;;;19.80;37.20;;;;;;4953833;28;20097;-69
2021/04/27 09:35:25;;;;;;;5.00;1.85;;;19.60;37.30;;;;;;4967906;28;20030;-69
2021/04/27 09:38:09;;;;;;;3.30;2.10;;;19.80;38.40;;;;;;4953757;28;20109;-67
2021/04/27 09:40:53;;;;;;;5.57;2.22;;;19.50;38.00;;;;;;4970837;28;20427;-70
2021/04/27 09:43:27;;;;;;;6.25;2.17;;;19.80;38.10;;;;;;4953032;28;20067;-71
2021/04/27 09:45:55;;;;;;;8.75;2.50;;;19.40;38.10;;;;;;4954662;28;20030;-68
2021/04/27 09:48:36;;;;;;;3.40;2.22;;;20.00;37.60;;;;;;4953198;28;20027;-69
2021/04/27 09:51:16;;;;;;;5.53;2.55;;;20.10;38.50;;;;;;4971705;28;20462;-67
2021/04/27 09:53:47;;;;;;;4.32;2.08;;;20.70;38.60;;;;;;4954617;28;20038;-67
2021/04/27 09:56:41;;;;;;;3.70;2.00;;;20.20;36.10;;;;;;4955184;28;20100;-68
2021/04/27 09:59:24;;;;;;;7.75;2.40;;;20.50;39.00;;;;;;4954708;28;20062;-69
2021/04/27 10:01:53;;;;;;;3.25;2.03;;;21.00;36.60;;;;;;4972750;28;20058;-67
2021/04/27 10:04:20;;;;;;;3.13;2.17;;;20.90;36.50;;;;;;4954235;28;20076;-70
2021/04/27 10:06:47;;;;;;;5.70;2.25;;;20.00;37.40;;;;;;4953843;28;20121;-67
2021/04/27 10:09:12;;;;;;;8.90;2.40;;;20.20;38.10;;;;;;4953087;28;20031;-71
2021/04/27 10:11:39;;;;;;;8.82;2.65;;;20.70;36.70;;;;;;4953185;28;20053;-67
2021/04/27 10:14:06;;;;;;;7.38;3.17;;;20.80;37.10;;;;;;4970820;28;20034;-68
2021/04/27 10:16:34;;;;;;;3.85;2.13;;;20.80;36.90;;;;;;4970321;28;20129;-72
2021/04/27 10:18:59;;;;;;;4.93;2.80;;;21.20;37.00;;;;;;4952113;28;20088;-71
2021/04/27 10:21:25;;;;;;;4.63;2.60;;;21.70;36.70;;;;;;4970704;28;20420;-70
2021/04/27 10:23:57;;;;;;;5.68;2.92;;;21.80;35.30;;;;;;4952727;28;20057;-68
2021/04/27 10:26:25;;;;;;;5.68;2.40;;;22.20;36.30;;;;;;4970793;28;20055;-68
2021/04/27 10:29:05;;;;;;;6.53;2.38;;;22.50;35.40;;;;;;4970883;28;20073;-68
2021/04/27 10:31:33;;;;;;;9.02;2.47;;;22.00;35.80;;;;;;4953138;28;20536;-68
2021/04/27 10:34:14;;;;;;;5.72;2.58;;;22.20;36.20;;;;;;4952501;28;20039;-68
2021/04/27 10:37:03;;;;;;;5.82;3.10;;;22.40;35.30;;;;;;4952859;28;20559;-70
2021/04/27 10:39:36;;;;;;;6.55;2.92;;;22.80;54.60;;;;;;4946154;28;20045;-69
2021/04/27 10:42:22;;;;;;;4.45;3.10;;;22.60;34.50;;;;;;4952528;28;20042;-68
2021/04/27 10:44:51;;;;;;;4.88;2.75;;;22.80;38.70;;;;;;4960305;28;20042;-68
2021/04/27 10:47:18;;;;;;;5.43;2.85;;;23.10;35.10;;;;;;4967882;28;20209;-69
2021/04/27 10:49:44;;;;;;;4.47;2.20;;;22.80;34.80;;;;;;4968968;28;20035;-69
2021/04/27 10:52:45;;;;;;;6.47;2.83;;;23.00;34.60;;;;;;4968806;28;20035;-68
2021/04/27 10:55:31;;;;;;;5.13;3.72;;;20.70;35.30;;;;;;4928293;29;20510;-72
2021/04/27 10:57:59;;;;;;;3.83;2.20;;;20.60;35.90;;;;;;4967472;28;20176;-74
2021/04/27 11:00:42;;;;;;;8.98;2.70;;;21.60;36.30;;;;;;4952388;28;20027;-70
2021/04/27 11:03:18;;;;;;;7.25;2.90;;;22.30;36.00;;;;;;4952623;28;20122;-69
2021/04/27 11:05:57;;;;;;;5.82;3.17;;;22.60;35.70;;;;;;4952242;28;20027;-68
2021/04/27 11:08:41;;;;;;;5.30;2.90;;;23.20;36.30;;;;;;4952186;28;20471;-70
2021/04/27 11:11:36;;;;;;;4.43;2.50;;;23.50;33.70;;;;;;4952011;28;20041;-67
2021/04/27 11:14:20;;;;;;;4.72;2.53;;;23.40;34.40;;;;;;4961049;28;20437;-73
2021/04/27 11:16:57;;;;;;;5.75;3.00;;;23.70;34.00;;;;;;4970152;28;20162;-67
2021/04/27 11:19:30;;;;;;;4.85;2.95;;;23.90;33.30;;;;;;4970569;28;20039;-67
2021/04/27 11:22:19;;;;;;;4.32;2.70;;;23.80;34.50;;;;;;4969573;28;20313;-66
2021/04/27 11:24:45;;;;;;;7.18;2.90;;;24.10;33.80;;;;;;4969975;28;20141;-66
2021/04/27 11:27:41;;;;;;;7.55;2.85;;;23.90;33.20;;;;;;4968978;28;20138;-67
2021/04/27 11:30:14;;;;;;;8.65;3.22;;;22.60;33.00;;;;;;4968724;28;20057;-67
2021/04/27 11:32:46;;;;;;;6.90;3.25;;;22.90;34.60;;;;;;4969490;28;20469;-67
2021/04/27 11:35:20;;;;;;;10.13;3.17;;;23.40;33.60;;;;;;4969045;28;20077;-65
2021/04/27 11:37:52;;;;;;;5.22;2.70;;;24.10;33.70;;;;;;4952141;28;20110;-66
2021/04/27 11:40:29;;;;;;;5.03;2.55;;;24.50;33.80;;;;;;4967689;28;20240;-67
2021/04/27 11:43:08;;;;;;;4.03;2.63;;;24.60;33.40;;;;;;4968360;28;20137;-67
2021/04/27 11:45:37;;;;;;;6.50;3.17;;;24.70;33.30;;;;;;4970037;28;20049;-67
2021/04/27 11:48:04;;;;;;;7.18;3.35;;;24.90;38.30;;;;;;4951508;28;20030;-67
2021/04/27 11:50:33;;;;;;;8.65;2.83;;;24.60;37.20;;;;;;4951361;28;20113;-66
2021/04/27 11:53:11;;;;;;;6.53;3.17;;;24.60;35.80;;;;;;4951478;28;20102;-78
2021/04/27 11:55:36;;;;;;;7.90;2.90;;;24.60;35.40;;;;;;4951821;28;20035;-69
2021/04/27 11:58:14;;;;;;;4.75;2.65;;;24.60;35.90;;;;;;4951446;28;20416;-66
2021/04/27 12:00:52;;;;;;;5.22;2.83;;;24.80;35.30;;;;;;4970070;28;20113;-68
2021/04/27 12:03:45;;;;;;;11.27;3.33;;;24.70;35.20;;;;;;4951708;28;20641;-71
2021/04/27 12:06:16;;;;;;;3.88;2.70;;;24.50;36.20;;;;;;4948203;28;20038;-66
2021/04/27 12:08:47;;;;;;;5.90;2.53;;;24.50;34.70;;;;;;4969403;28;20299;-67
2021/04/27 12:11:16;;;;;;;4.22;2.80;;;23.90;33.20;;;;;;4969052;28;20102;-71
2021/04/27 12:13:48;;;;;;;5.68;2.42;;;23.80;34.30;;;;;;4953367;28;20038;-66
2021/04/27 12:16:28;;;;;;;5.55;2.50;;;24.30;34.40;;;;;;4969435;28;20437;-72
2021/04/27 12:18:58;;;;;;;7.07;2.92;;;23.90;33.20;;;;;;4952630;28;20031;-72
2021/04/27 12:21:28;;;;;;;3.90;2.83;;;22.40;34.60;;;;;;4952990;28;20027;-68
2021/04/27 12:24:03;;;;;;;11.25;3.42;;;21.60;32.00;;;;;;4951400;28;20418;-73
2021/04/27 12:26:29;;;;;;;4.68;2.53;;;21.20;33.30;;;;;;4969678;28;20485;-67
2021/04/27 12:28:58;;;;;;;5.32;2.55;;;21.40;32.60;;;;;;4951972;28;20122;-69
2021/04/27 12:31:25;;;;;;;5.10;2.55;;;22.70;32.30;;;;;;4951893;28;20571;-67
2021/04/27 12:33:55;;;;;;;3.45;2.30;;;22.80;31.30;;;;;;4952581;28;20042;-67
2021/04/27 12:36:49;;;;;;;5.13;2.95;;;22.80;31.60;;;;;;4955006;28;20023;-66
2021/04/27 12:39:35;;;;;;;5.72;2.40;;;21.80;32.70;;;;;;4954772;28;20492;-66
2021/04/27 12:42:15;;;;;;;5.65;3.53;;;21.70;32.70;;;;;;4972349;28;20078;-72
2021/04/27 12:44:42;;;;;;;7.63;2.17;;;22.50;31.70;;;;;;4955354;28;20151;-73
2021/04/27 12:47:14;;;;;;;5.35;3.22;;;23.30;33.40;;;;;;4954484;28;20039;-66
2021/04/27 12:49:40;;;;;;;5.93;2.50;;;24.00;32.50;;;;;;4972578;28;20069;-67
2021/04/27 12:52:14;;;;;;;4.70;2.58;;;22.90;31.10;;;;;;4972096;28;20063;-67
2021/04/27 12:54:41;;;;;;;6.45;2.70;;;22.60;33.20;;;;;;4954800;28;20120;-68
2021/04/27 12:57:16;;;;;;;4.47;2.75;;;22.50;31.40;;;;;;4955283;28;20469;-69
2021/04/27 12:59:45;;;;;;;6.90;3.38;;;21.90;32.20;;;;;;4954505;28;20093;-67
2021/04/27 13:02:16;;;;;;;4.57;2.78;;;21.50;32.60;;;;;;4930299;29;20046;-68
2021/04/27 13:04:47;;;;;;;5.43;2.45;;;22.20;32.50;;;;;;4931874;29;20061;-66
2021/04/27 13:07:24;;;;;;;;;;;22.30;32.80;;;;;;4916063;29;20039;-73
2021/04/27 13:09:50;;;;;;;5.20;2.50;;;23.00;32.90;;;;;;4930632;29;19965;-70
2021/04/27 13:12:17;;;;;;;10.02;3.03;;;23.30;33.80;;;;;;4914713;29;20043;-69
2021/04/27 13:14:47;;;;;;;4.43;2.63;;;23.90;32.20;;;;;;4932052;29;20039;-68
2021/04/27 13:17:28;;;;;;;3.70;3.03;;;24.10;32.10;;;;;;4931677;29;20462;-69
2021/04/27 13:19:59;;;;;;;4.30;2.50;;;24.20;32.80;;;;;;4931447;29;20522;-67
2021/04/27 13:22:35;;;;;;;4.65;2.97;;;24.30;32.00;;;;;;4915099;29;20118;-66
2021/04/27 13:25:04;;;;;;;5.80;2.33;;;24.40;30.90;;;;;;4915065;29;20501;-70
2021/04/27 13:27:31;;;;;;;7.93;2.75;;;24.50;32.00;;;;;;4931313;29;20481;-73
2021/04/27 13:30:07;;;;;;;6.80;2.72;;;24.20;31.90;;;;;;4931064;29;20119;-69
2021/04/27 13:32:34;;;;;;;11.65;2.47;;;24.80;32.50;;;;;;4924712;28;20039;-66
2021/04/27 13:35:16;;;;;;;5.68;3.10;;;24.60;32.40;;;;;;4971760;28;20073;-67
2021/04/27 13:37:42;;;;;;;4.75;2.42;;;24.30;30.90;;;;;;4972129;28;20101;-67
2021/04/27 13:40:11;;;;;;;12.77;3.45;;;22.90;32.00;;;;;;4953352;28;20047;-68
2021/04/27 13:42:37;;;;;;;3.50;2.33;;;23.60;33.80;;;;;;4971220;28;20196;-74
2021/04/27 13:45:04;;;;;;;6.78;2.28;;;23.40;31.60;;;;;;4953377;28;20101;-68
2021/04/27 13:47:30;;;;;;;4.55;2.47;;;23.20;32.60;;;;;;4953982;28;20054;-68
2021/04/27 13:49:56;;;;;;;21.58;4.30;;;23.70;33.00;;;;;;4971755;28;20476;-69
2021/04/27 13:52:21;;;;;;;5.18;2.50;;;23.90;32.40;;;;;;4970439;28;20046;-69
2021/04/27 13:54:47;;;;;;;4.57;2.20;;;23.50;32.30;;;;;;4954175;28;20341;-67
2021/04/27 13:57:13;;;;;;;5.82;2.25;;;23.60;33.00;;;;;;4953486;28;20481;-66
2021/04/27 13:59:38;;;;;;;7.25;2.58;;;24.00;32.50;;;;;;4971530;28;20035;-70
2021/04/27 14:02:05;;;;;;;4.50;2.38;;;24.10;32.60;;;;;;4953560;28;20361;-70
2021/04/27 14:04:31;;;;;;;3.58;2.80;;;24.00;32.40;;;;;;4971275;28;20430;-69
2021/04/27 14:06:57;;;;;;;5.38;2.42;;;23.20;32.20;;;;;;4970883;28;20056;-67
2021/04/27 14:09:22;;;;;;;6.20;2.70;;;23.10;32.80;;;;;;4953436;28;20526;-66
2021/04/27 14:11:48;;;;;;;3.72;2.78;;;23.70;33.00;;;;;;4970965;28;20027;-67
2021/04/27 14:14:14;;;;;;;3.05;2.13;;;23.90;32.90;;;;;;4970533;28;20460;-67
2021/04/27 14:16:40;;;;;;;3.50;2.60;;;23.50;31.80;;;;;;4954432;28;20047;-74
2021/04/27 14:19:06;;;;;;;5.82;2.55;;;24.00;32.70;;;;;;4972576;28;20506;-71
2021/04/27 14:21:31;;;;;;;3.90;2.60;;;24.20;32.50;;;;;;4938978;28;20144;-69
2021/04/27 14:23:57;;;;;;;4.95;2.55;;;24.10;32.20;;;;;;4953509;28;20087;-69
2021/04/27 14:26:22;;;;;;;7.50;3.05;;;24.10;32.00;;;;;;4952894;28;20107;-68
2021/04/27 14:28:48;;;;;;;5.75;2.88;;;24.40;32.20;;;;;;4953294;28;20027;-68
2021/04/27 14:31:14;;;;;;;6.18;2.60;;;24.70;31.40;;;;;;4969895;28;20035;-67
2021/04/27 14:33:39;;;;;;;3.80;2.90;;;24.30;30.90;;;;;;4952760;28;20125;-67